sensor_id;sensor_type;location;lat;lon;timestamp;pressure;altitude;pressure_sealevel;temperature;humidity
71917;BME280;59793;46.506;6.674;2023-07-29T00:01:18;96793.41;;;22.73;55.61
71917;BME280;59793;46.506;6.674;2023-07-29T00:03:43;96947.41;;;22.37;64.72
71917;BME280;59793;46.506;6.674;2023-07-29T00:06:09;96878.91;;;20.51;73.83
71917;BME280;59793;46.506;6.674;2023-07-29T00:08:34;96869.25;;;20.34;74.04
71917;BME280;59793;46.506;6.674;2023-07-29T00:11:00;96881.06;;;20.36;76.48
71917;BME280;59793;46.506;6.674;2023-07-29T00:13:25;96857.84;;;20.06;78.63
71917;BME280;59793;46.506;6.674;2023-07-29T00:15:53;96843.91;;;19.95;80.82
71917;BME280;59793;46.506;6.674;2023-07-29T00:18:18;96831.84;;;20.06;80.89
71917;BME280;59793;46.506;6.674;2023-07-29T00:20:44;96798.56;;;20.11;81.27
71917;BME280;59793;46.506;6.674;2023-07-29T00:23:09;96794.22;;;20.17;81.54
71917;BME280;59793;46.506;6.674;2023-07-29T00:25:34;96765.31;;;19.89;83.60
71917;BME280;59793;46.506;6.674;2023-07-29T00:28:00;96784.31;;;19.94;83.66
71917;BME280;59793;46.506;6.674;2023-07-29T00:30:25;96777.13;;;19.91;82.55
71917;BME280;59793;46.506;6.674;2023-07-29T00:32:51;96772.38;;;19.79;84.00
71917;BME280;59793;46.506;6.674;2023-07-29T00:35:16;96748.41;;;19.48;85.18
71917;BME280;59793;46.506;6.674;2023-07-29T00:37:41;96782.88;;;19.66;84.87
71917;BME280;59793;46.506;6.674;2023-07-29T00:40:15;96787.00;;;19.71;85.24
71917;BME280;59793;46.506;6.674;2023-07-29T00:42:42;96805.72;;;19.94;84.97
71917;BME280;59793;46.506;6.674;2023-07-29T00:45:09;96798.69;;;20.04;85.13
71917;BME280;59793;46.506;6.674;2023-07-29T00:47:34;96807.22;;;20.39;84.55
71917;BME280;59793;46.506;6.674;2023-07-29T00:49:59;96808.00;;;20.59;83.99
71917;BME280;59793;46.506;6.674;2023-07-29T00:52:25;96815.22;;;20.62;82.04
71917;BME280;59793;46.506;6.674;2023-07-29T00:54:50;96781.41;;;20.48;81.06
71917;BME280;59793;46.506;6.674;2023-07-29T00:57:16;96791.47;;;20.64;80.41
71917;BME280;59793;46.506;6.674;2023-07-29T00:59:42;96792.91;;;20.69;80.82
71917;BME280;59793;46.506;6.674;2023-07-29T01:02:08;96790.66;;;20.67;80.39
71917;BME280;59793;46.506;6.674;2023-07-29T01:04:33;96777.06;;;20.58;80.08
71917;BME280;59793;46.506;6.674;2023-07-29T01:07:13;96778.19;;;20.37;80.98
71917;BME280;59793;46.506;6.674;2023-07-29T01:09:54;96802.41;;;20.53;80.08
71917;BME280;59793;46.506;6.674;2023-07-29T01:12:27;96816.84;;;20.76;80.24
71917;BME280;59793;46.506;6.674;2023-07-29T01:15:55;96806.00;;;20.83;80.16
71917;BME280;59793;46.506;6.674;2023-07-29T01:17:58;96800.50;;;20.70;81.68
71917;BME280;59793;46.506;6.674;2023-07-29T01:20:25;96818.44;;;20.73;81.46
71917;BME280;59793;46.506;6.674;2023-07-29T01:22:50;96793.88;;;20.79;81.55
71917;BME280;59793;46.506;6.674;2023-07-29T01:25:16;96817.25;;;20.94;81.68
71917;BME280;59793;46.506;6.674;2023-07-29T01:27:47;96830.25;;;21.12;80.60
71917;BME280;59793;46.506;6.674;2023-07-29T01:30:12;96807.56;;;21.00;79.46
71917;BME280;59793;46.506;6.674;2023-07-29T01:35:15;96765.22;;;20.95;77.96
71917;BME280;59793;46.506;6.674;2023-07-29T01:37:49;96781.13;;;21.19;78.32
71917;BME280;59793;46.506;6.674;2023-07-29T01:40:17;96771.25;;;21.16;77.34
71917;BME280;59793;46.506;6.674;2023-07-29T01:42:43;96818.13;;;21.44;76.93
71917;BME280;59793;46.506;6.674;2023-07-29T01:45:10;96787.31;;;21.16;77.66
71917;BME280;59793;46.506;6.674;2023-07-29T01:47:36;96807.44;;;20.88;79.84
71917;BME280;59793;46.506;6.674;2023-07-29T01:50:01;96841.56;;;20.84;81.17
71917;BME280;59793;46.506;6.674;2023-07-29T01:52:28;96793.50;;;20.37;82.04
71917;BME280;59793;46.506;6.674;2023-07-29T01:54:53;96819.84;;;20.38;83.20
71917;BME280;59793;46.506;6.674;2023-07-29T01:57:19;96778.25;;;20.14;83.13
71917;BME280;59793;46.506;6.674;2023-07-29T01:59:44;96792.41;;;20.34;82.23
71917;BME280;59793;46.506;6.674;2023-07-29T02:02:09;96835.50;;;20.40;84.10
71917;BME280;59793;46.506;6.674;2023-07-29T02:04:36;96794.53;;;20.23;84.91
71917;BME280;59793;46.506;6.674;2023-07-29T02:07:02;96794.28;;;20.14;83.46
71917;BME280;59793;46.506;6.674;2023-07-29T02:09:27;96782.63;;;20.04;84.62
71917;BME280;59793;46.506;6.674;2023-07-29T02:11:52;96714.16;;;19.67;84.49
71917;BME280;59793;46.506;6.674;2023-07-29T02:14:18;96767.00;;;20.02;83.90
71917;BME280;59793;46.506;6.674;2023-07-29T02:16:43;96793.56;;;20.33;83.94
71917;BME280;59793;46.506;6.674;2023-07-29T02:19:08;96753.16;;;20.27;82.35
71917;BME280;59793;46.506;6.674;2023-07-29T02:21:33;96794.47;;;20.66;80.30
71917;BME280;59793;46.506;6.674;2023-07-29T02:23:59;96778.56;;;20.59;79.67
71917;BME280;59793;46.506;6.674;2023-07-29T02:26:24;96806.97;;;20.73;81.32
71917;BME280;59793;46.506;6.674;2023-07-29T02:28:50;96795.75;;;20.38;81.60
71917;BME280;59793;46.506;6.674;2023-07-29T02:31:17;96806.31;;;20.45;80.54
71917;BME280;59793;46.506;6.674;2023-07-29T02:33:43;96819.38;;;20.43;82.04
71917;BME280;59793;46.506;6.674;2023-07-29T02:36:09;96808.94;;;20.29;82.11
71917;BME280;59793;46.506;6.674;2023-07-29T02:38:34;96777.00;;;19.98;81.73
71917;BME280;59793;46.506;6.674;2023-07-29T02:41:00;96816.28;;;20.25;82.11
71917;BME280;59793;46.506;6.674;2023-07-29T02:43:25;96811.75;;;20.22;82.01
71917;BME280;59793;46.506;6.674;2023-07-29T02:45:50;96797.56;;;20.25;81.58
71917;BME280;59793;46.506;6.674;2023-07-29T02:48:16;96814.03;;;20.43;81.05
71917;BME280;59793;46.506;6.674;2023-07-29T02:50:41;96809.06;;;20.42;81.43
71917;BME280;59793;46.506;6.674;2023-07-29T02:53:06;96770.88;;;20.21;81.21
71917;BME280;59793;46.506;6.674;2023-07-29T02:55:32;96794.69;;;20.36;81.33
71917;BME280;59793;46.506;6.674;2023-07-29T02:57:57;96817.03;;;20.45;81.55
71917;BME280;59793;46.506;6.674;2023-07-29T03:00:22;96817.75;;;20.49;81.00
71917;BME280;59793;46.506;6.674;2023-07-29T03:02:49;96829.69;;;20.65;80.38
71917;BME280;59793;46.506;6.674;2023-07-29T03:05:15;96770.53;;;20.39;80.16
71917;BME280;59793;46.506;6.674;2023-07-29T03:07:40;96796.38;;;20.46;80.52
71917;BME280;59793;46.506;6.674;2023-07-29T03:10:06;96833.88;;;20.66;80.08
71917;BME280;59793;46.506;6.674;2023-07-29T03:12:31;96780.38;;;20.42;79.85
71917;BME280;59793;46.506;6.674;2023-07-29T03:14:56;96823.72;;;20.77;79.83
71917;BME280;59793;46.506;6.674;2023-07-29T03:17:22;96800.88;;;20.72;79.74
71917;BME280;59793;46.506;6.674;2023-07-29T03:19:47;96812.72;;;20.91;79.58
71917;BME280;59793;46.506;6.674;2023-07-29T03:22:12;96823.28;;;20.98;79.59
71917;BME280;59793;46.506;6.674;2023-07-29T03:24:38;96771.34;;;20.56;80.53
71917;BME280;59793;46.506;6.674;2023-07-29T03:27:03;96807.56;;;20.81;80.24
71917;BME280;59793;46.506;6.674;2023-07-29T03:29:28;96806.06;;;20.80;79.99
71917;BME280;59793;46.506;6.674;2023-07-29T03:31:54;96828.84;;;21.08;79.62
71917;BME280;59793;46.506;6.674;2023-07-29T03:34:20;96776.28;;;20.77;79.02
71917;BME280;59793;46.506;6.674;2023-07-29T03:36:45;96788.28;;;20.89;79.27
71917;BME280;59793;46.506;6.674;2023-07-29T03:39:13;96756.69;;;20.64;78.96
71917;BME280;59793;46.506;6.674;2023-07-29T03:41:38;96756.25;;;20.66;79.38
71917;BME280;59793;46.506;6.674;2023-07-29T03:44:03;96804.44;;;20.86;80.46
71917;BME280;59793;46.506;6.674;2023-07-29T03:46:29;96782.59;;;20.47;81.09
71917;BME280;59793;46.506;6.674;2023-07-29T03:48:54;96810.53;;;20.66;80.91
71917;BME280;59793;46.506;6.674;2023-07-29T03:51:19;96800.31;;;20.61;80.60
71917;BME280;59793;46.506;6.674;2023-07-29T03:53:45;96780.97;;;20.53;80.22
71917;BME280;59793;46.506;6.674;2023-07-29T03:56:11;96749.44;;;20.41;79.67
71917;BME280;59793;46.506;6.674;2023-07-29T03:58:36;96759.97;;;20.52;78.67
71917;BME280;59793;46.506;6.674;2023-07-29T04:01:01;96738.75;;;20.41;79.13
71917;BME280;59793;46.506;6.674;2023-07-29T04:03:27;96773.28;;;20.56;79.89
71917;BME280;59793;46.506;6.674;2023-07-29T04:05:52;96809.78;;;20.66;80.80
71917;BME280;59793;46.506;6.674;2023-07-29T04:08:18;96807.00;;;20.53;81.33
71917;BME280;59793;46.506;6.674;2023-07-29T04:10:43;96830.44;;;20.65;81.11
71917;BME280;59793;46.506;6.674;2023-07-29T04:13:09;96821.00;;;20.61;81.50
71917;BME280;59793;46.506;6.674;2023-07-29T04:15:34;96816.41;;;20.38;81.79
71917;BME280;59793;46.506;6.674;2023-07-29T04:17:59;96801.97;;;20.12;82.86
71917;BME280;59793;46.506;6.674;2023-07-29T04:20:25;96822.78;;;20.24;82.96
71917;BME280;59793;46.506;6.674;2023-07-29T04:22:50;96801.81;;;19.99;83.83
71917;BME280;59793;46.506;6.674;2023-07-29T04:25:15;96800.50;;;19.87;84.33
71917;BME280;59793;46.506;6.674;2023-07-29T04:27:41;96831.59;;;20.01;84.82
71917;BME280;59793;46.506;6.674;2023-07-29T04:30:06;96847.22;;;20.26;83.96
71917;BME280;59793;46.506;6.674;2023-07-29T04:32:32;96848.59;;;20.34;83.60
71917;BME280;59793;46.506;6.674;2023-07-29T04:34:57;96841.66;;;20.37;82.93
71917;BME280;59793;46.506;6.674;2023-07-29T04:37:23;96834.03;;;20.35;82.19
71917;BME280;59793;46.506;6.674;2023-07-29T04:39:48;96855.78;;;20.61;81.79
71917;BME280;59793;46.506;6.674;2023-07-29T04:42:13;96836.38;;;20.57;81.56
71917;BME280;59793;46.506;6.674;2023-07-29T04:44:39;96860.72;;;20.82;81.25
71917;BME280;59793;46.506;6.674;2023-07-29T04:47:04;96802.41;;;20.53;80.92
71917;BME280;59793;46.506;6.674;2023-07-29T04:49:29;96852.94;;;20.88;81.14
71917;BME280;59793;46.506;6.674;2023-07-29T04:51:54;96867.84;;;21.09;80.66
71917;BME280;59793;46.506;6.674;2023-07-29T04:54:20;96874.75;;;21.26;80.07
71917;BME280;59793;46.506;6.674;2023-07-29T04:56:46;96876.75;;;21.42;80.01
71917;BME280;59793;46.506;6.674;2023-07-29T04:59:11;96850.44;;;21.37;79.07
71917;BME280;59793;46.506;6.674;2023-07-29T05:01:38;96845.25;;;21.46;78.26
71917;BME280;59793;46.506;6.674;2023-07-29T05:04:03;96848.72;;;21.63;77.58
71917;BME280;59793;46.506;6.674;2023-07-29T05:06:29;96868.50;;;21.85;77.27
71917;BME280;59793;46.506;6.674;2023-07-29T05:08:54;96834.44;;;21.66;77.70
71917;BME280;59793;46.506;6.674;2023-07-29T05:11:19;96824.25;;;21.61;77.26
71917;BME280;59793;46.506;6.674;2023-07-29T05:13:45;96833.47;;;21.60;77.86
71917;BME280;59793;46.506;6.674;2023-07-29T05:16:10;96865.13;;;21.81;77.27
71917;BME280;59793;46.506;6.674;2023-07-29T05:18:35;96813.00;;;21.50;77.38
71917;BME280;59793;46.506;6.674;2023-07-29T05:21:01;96872.84;;;21.95;77.26
71917;BME280;59793;46.506;6.674;2023-07-29T05:23:26;96842.84;;;21.84;77.56
71917;BME280;59793;46.506;6.674;2023-07-29T05:25:51;96819.13;;;21.66;77.83
71917;BME280;59793;46.506;6.674;2023-07-29T05:28:17;96860.19;;;21.96;78.21
71917;BME280;59793;46.506;6.674;2023-07-29T05:30:43;96858.09;;;22.04;77.98
71917;BME280;59793;46.506;6.674;2023-07-29T05:33:09;96867.31;;;22.19;78.08
71917;BME280;59793;46.506;6.674;2023-07-29T05:35:34;96867.81;;;22.30;77.13
71917;BME280;59793;46.506;6.674;2023-07-29T05:37:59;96855.41;;;22.20;77.02
71917;BME280;59793;46.506;6.674;2023-07-29T05:40:25;96877.78;;;22.13;77.60
71917;BME280;59793;46.506;6.674;2023-07-29T05:42:50;96871.66;;;22.13;77.58
71917;BME280;59793;46.506;6.674;2023-07-29T05:45:15;96811.25;;;21.76;77.72
71917;BME280;59793;46.506;6.674;2023-07-29T05:47:41;96843.00;;;22.10;77.54
71917;BME280;59793;46.506;6.674;2023-07-29T05:50:06;96851.00;;;22.42;76.35
71917;BME280;59793;46.506;6.674;2023-07-29T05:52:32;96848.47;;;22.52;76.11
71917;BME280;59793;46.506;6.674;2023-07-29T05:54:58;96805.34;;;22.30;75.95
71917;BME280;59793;46.506;6.674;2023-07-29T05:57:23;96869.06;;;22.84;75.31
71917;BME280;59793;46.506;6.674;2023-07-29T05:59:49;96842.63;;;22.82;73.51
71917;BME280;59793;46.506;6.674;2023-07-29T06:02:14;96840.88;;;23.05;72.69
71917;BME280;59793;46.506;6.674;2023-07-29T06:04:40;96857.56;;;23.38;72.52
71917;BME280;59793;46.506;6.674;2023-07-29T06:07:05;96869.94;;;23.61;71.81
71917;BME280;59793;46.506;6.674;2023-07-29T06:09:31;96866.09;;;23.75;69.18
71917;BME280;59793;46.506;6.674;2023-07-29T06:11:56;96881.91;;;23.73;70.46
71917;BME280;59793;46.506;6.674;2023-07-29T06:14:21;96834.34;;;23.44;70.84
71917;BME280;59793;46.506;6.674;2023-07-29T06:16:47;96860.91;;;23.55;71.15
71917;BME280;59793;46.506;6.674;2023-07-29T06:19:12;96880.72;;;23.87;69.94
71917;BME280;59793;46.506;6.674;2023-07-29T06:21:38;96889.94;;;24.11;70.35
71917;BME280;59793;46.506;6.674;2023-07-29T06:24:04;96893.22;;;24.28;68.80
71917;BME280;59793;46.506;6.674;2023-07-29T06:26:29;96839.91;;;23.88;68.56
71917;BME280;59793;46.506;6.674;2023-07-29T06:28:54;96875.63;;;23.89;68.23
71917;BME280;59793;46.506;6.674;2023-07-29T06:31:20;96851.13;;;23.61;68.81
71917;BME280;59793;46.506;6.674;2023-07-29T06:33:46;96868.88;;;23.58;69.26
71917;BME280;59793;46.506;6.674;2023-07-29T06:36:11;96895.53;;;23.53;68.82
71917;BME280;59793;46.506;6.674;2023-07-29T06:38:37;96884.16;;;23.36;68.38
71917;BME280;59793;46.506;6.674;2023-07-29T06:41:04;96871.13;;;23.22;68.37
71917;BME280;59793;46.506;6.674;2023-07-29T06:43:29;96902.66;;;23.47;67.35
71917;BME280;59793;46.506;6.674;2023-07-29T06:45:55;96896.06;;;23.35;67.20
71917;BME280;59793;46.506;6.674;2023-07-29T06:48:20;96849.59;;;23.09;66.91
71917;BME280;59793;46.506;6.674;2023-07-29T06:50:45;96860.97;;;23.00;67.61
71917;BME280;59793;46.506;6.674;2023-07-29T06:53:11;96865.94;;;22.85;68.20
71917;BME280;59793;46.506;6.674;2023-07-29T06:55:37;96837.75;;;22.64;68.85
71917;BME280;59793;46.506;6.674;2023-07-29T06:58:02;96879.50;;;23.24;69.46
71917;BME280;59793;46.506;6.674;2023-07-29T07:00:27;96864.66;;;23.32;68.50
71917;BME280;59793;46.506;6.674;2023-07-29T07:02:53;96867.66;;;23.59;66.59
71917;BME280;59793;46.506;6.674;2023-07-29T07:05:18;96858.66;;;23.53;65.45
71917;BME280;59793;46.506;6.674;2023-07-29T07:07:44;96800.47;;;23.34;65.41
71917;BME280;59793;46.506;6.674;2023-07-29T07:10:09;96849.50;;;23.76;65.59
71917;BME280;59793;46.506;6.674;2023-07-29T07:12:34;96859.22;;;24.08;65.11
71917;BME280;59793;46.506;6.674;2023-07-29T07:15:00;96857.19;;;24.13;65.03
71917;BME280;59793;46.506;6.674;2023-07-29T07:17:26;96841.88;;;24.22;65.12
71917;BME280;59793;46.506;6.674;2023-07-29T07:19:51;96830.22;;;24.25;63.34
71917;BME280;59793;46.506;6.674;2023-07-29T07:22:16;96876.00;;;24.60;63.63
71917;BME280;59793;46.506;6.674;2023-07-29T07:24:42;96881.16;;;24.67;61.93
71917;BME280;59793;46.506;6.674;2023-07-29T07:27:07;96866.81;;;24.70;62.34
71917;BME280;59793;46.506;6.674;2023-07-29T07:29:33;96879.81;;;24.94;61.94
71917;BME280;59793;46.506;6.674;2023-07-29T07:31:58;96841.78;;;24.92;62.07
71917;BME280;59793;46.506;6.674;2023-07-29T07:34:26;96838.50;;;24.97;61.09
71917;BME280;59793;46.506;6.674;2023-07-29T07:36:51;96840.59;;;24.71;60.02
71917;BME280;59793;46.506;6.674;2023-07-29T07:39:17;96838.28;;;24.60;60.79
71917;BME280;59793;46.506;6.674;2023-07-29T07:41:42;96867.09;;;24.72;60.68
71917;BME280;59793;46.506;6.674;2023-07-29T07:44:08;96867.03;;;25.07;61.37
71917;BME280;59793;46.506;6.674;2023-07-29T07:46:33;96828.06;;;25.08;60.10
71917;BME280;59793;46.506;6.674;2023-07-29T07:48:59;96819.22;;;24.98;58.21
71917;BME280;59793;46.506;6.674;2023-07-29T07:51:24;96844.13;;;25.43;57.79
71917;BME280;59793;46.506;6.674;2023-07-29T07:53:49;96865.63;;;25.56;57.23
71917;BME280;59793;46.506;6.674;2023-07-29T07:56:15;96825.53;;;25.36;58.28
71917;BME280;59793;46.506;6.674;2023-07-29T07:58:40;96847.84;;;25.77;56.80
71917;BME280;59793;46.506;6.674;2023-07-29T08:01:06;96864.72;;;25.59;58.50
71917;BME280;59793;46.506;6.674;2023-07-29T08:03:32;96883.09;;;25.11;58.89
71917;BME280;59793;46.506;6.674;2023-07-29T08:05:58;96896.75;;;25.16;59.84
71917;BME280;59793;46.506;6.674;2023-07-29T08:08:25;96889.91;;;24.80;58.96
71917;BME280;59793;46.506;6.674;2023-07-29T08:10:52;96853.19;;;24.52;59.41
71917;BME280;59793;46.506;6.674;2023-07-29T08:13:19;96849.47;;;24.37;58.93
71917;BME280;59793;46.506;6.674;2023-07-29T08:15:48;96914.88;;;24.59;60.26
71917;BME280;59793;46.506;6.674;2023-07-29T08:18:15;96887.09;;;24.62;59.37
71917;BME280;59793;46.506;6.674;2023-07-29T08:20:40;96894.53;;;24.58;60.14
71917;BME280;59793;46.506;6.674;2023-07-29T08:23:06;96866.28;;;24.63;58.34
71917;BME280;59793;46.506;6.674;2023-07-29T08:25:31;96859.84;;;24.60;59.28
71917;BME280;59793;46.506;6.674;2023-07-29T08:27:56;96862.47;;;24.51;58.83
71917;BME280;59793;46.506;6.674;2023-07-29T08:30:22;96882.41;;;24.53;59.20
71917;BME280;59793;46.506;6.674;2023-07-29T08:32:47;96874.25;;;24.66;58.99
71917;BME280;59793;46.506;6.674;2023-07-29T08:35:13;96893.31;;;24.72;59.07
71917;BME280;59793;46.506;6.674;2023-07-29T08:37:38;96886.66;;;24.64;59.08
71917;BME280;59793;46.506;6.674;2023-07-29T08:40:04;96859.16;;;24.47;58.96
71917;BME280;59793;46.506;6.674;2023-07-29T08:42:31;96921.47;;;24.58;59.89
71917;BME280;59793;46.506;6.674;2023-07-29T08:45:01;96865.66;;;24.24;60.34
71917;BME280;59793;46.506;6.674;2023-07-29T08:47:31;96893.63;;;24.39;59.60
71917;BME280;59793;46.506;6.674;2023-07-29T08:49:56;96869.63;;;24.32;61.42
71917;BME280;59793;46.506;6.674;2023-07-29T08:52:23;96870.41;;;24.20;60.80
71917;BME280;59793;46.506;6.674;2023-07-29T08:54:50;96876.53;;;24.20;60.72
71917;BME280;59793;46.506;6.674;2023-07-29T08:57:16;96841.53;;;23.85;60.61
71917;BME280;59793;46.506;6.674;2023-07-29T08:59:42;96872.50;;;24.03;62.83
71917;BME280;59793;46.506;6.674;2023-07-29T09:02:07;96892.22;;;23.87;61.93
71917;BME280;59793;46.506;6.674;2023-07-29T09:04:33;96856.50;;;23.48;63.70
71917;BME280;59793;46.506;6.674;2023-07-29T09:06:59;96911.38;;;23.89;66.78
71917;BME280;59793;46.506;6.674;2023-07-29T09:09:25;96891.59;;;23.83;67.20
71917;BME280;59793;46.506;6.674;2023-07-29T09:11:50;96927.09;;;24.03;67.30
71917;BME280;59793;46.506;6.674;2023-07-29T09:14:16;96878.88;;;23.71;66.40
71917;BME280;59793;46.506;6.674;2023-07-29T09:16:41;96879.09;;;23.89;69.12
71917;BME280;59793;46.506;6.674;2023-07-29T09:19:07;96889.13;;;24.23;68.36
71917;BME280;59793;46.506;6.674;2023-07-29T09:21:32;96878.56;;;24.42;67.13
71917;BME280;59793;46.506;6.674;2023-07-29T09:24:02;96906.03;;;24.71;66.34
71917;BME280;59793;46.506;6.674;2023-07-29T09:26:28;96894.47;;;24.49;66.58
71917;BME280;59793;46.506;6.674;2023-07-29T09:28:58;96903.94;;;24.53;66.30
71917;BME280;59793;46.506;6.674;2023-07-29T09:31:28;96862.03;;;24.05;65.98
71917;BME280;59793;46.506;6.674;2023-07-29T09:34:02;96906.38;;;24.13;64.28
71917;BME280;59793;46.506;6.674;2023-07-29T09:36:30;96913.88;;;24.31;65.61
71917;BME280;59793;46.506;6.674;2023-07-29T09:38:56;96895.09;;;24.05;62.66
71917;BME280;59793;46.506;6.674;2023-07-29T09:41:29;96900.53;;;24.40;63.64
71917;BME280;59793;46.506;6.674;2023-07-29T09:43:58;96915.28;;;24.36;62.79
71917;BME280;59793;46.506;6.674;2023-07-29T09:46:25;96902.81;;;24.42;63.55
71917;BME280;59793;46.506;6.674;2023-07-29T09:48:56;96898.16;;;24.42;60.47
71917;BME280;59793;46.506;6.674;2023-07-29T09:51:21;96892.03;;;24.42;59.78
71917;BME280;59793;46.506;6.674;2023-07-29T09:53:47;96917.91;;;24.61;58.99
71917;BME280;59793;46.506;6.674;2023-07-29T09:56:14;96918.53;;;24.65;60.31
71917;BME280;59793;46.506;6.674;2023-07-29T09:58:42;96904.47;;;24.48;59.71
71917;BME280;59793;46.506;6.674;2023-07-29T10:01:08;96872.22;;;24.23;60.24
71917;BME280;59793;46.506;6.674;2023-07-29T10:03:35;96860.06;;;24.18;60.40
71917;BME280;59793;46.506;6.674;2023-07-29T10:06:02;96847.34;;;24.31;59.10
71917;BME280;59793;46.506;6.674;2023-07-29T10:08:29;96893.28;;;24.50;58.58
71917;BME280;59793;46.506;6.674;2023-07-29T10:10:55;96892.22;;;24.34;60.58
71917;BME280;59793;46.506;6.674;2023-07-29T10:13:21;96904.94;;;24.47;60.79
71917;BME280;59793;46.506;6.674;2023-07-29T10:15:46;96924.13;;;24.71;60.52
71917;BME280;59793;46.506;6.674;2023-07-29T10:18:14;96905.44;;;24.54;58.94
71917;BME280;59793;46.506;6.674;2023-07-29T10:20:42;96915.59;;;24.72;59.24
71917;BME280;59793;46.506;6.674;2023-07-29T10:23:09;96899.63;;;24.56;59.35
71917;BME280;59793;46.506;6.674;2023-07-29T10:25:38;96889.22;;;24.32;59.93
71917;BME280;59793;46.506;6.674;2023-07-29T10:28:06;96951.97;;;24.55;60.29
71917;BME280;59793;46.506;6.674;2023-07-29T10:30:32;96920.78;;;24.32;59.45
71917;BME280;59793;46.506;6.674;2023-07-29T10:32:59;96908.53;;;24.18;59.65
71917;BME280;59793;46.506;6.674;2023-07-29T10:35:26;96922.13;;;24.15;60.50
71917;BME280;59793;46.506;6.674;2023-07-29T10:37:53;96921.88;;;24.22;60.91
71917;BME280;59793;46.506;6.674;2023-07-29T10:40:19;96962.72;;;24.68;61.15
71917;BME280;59793;46.506;6.674;2023-07-29T10:43:11;96969.97;;;24.58;61.21
71917;BME280;59793;46.506;6.674;2023-07-29T10:45:41;96945.25;;;24.72;60.65
71917;BME280;59793;46.506;6.674;2023-07-29T10:51:34;96952.34;;;25.01;60.82
71917;BME280;59793;46.506;6.674;2023-07-29T10:54:10;96948.47;;;25.02;59.99
71917;BME280;59793;46.506;6.674;2023-07-29T10:56:40;96915.56;;;24.63;61.19
71917;BME280;59793;46.506;6.674;2023-07-29T11:01:39;96932.38;;;24.54;63.15
71917;BME280;59793;46.506;6.674;2023-07-29T11:15:03;96938.34;;;24.24;65.37
71917;BME280;59793;46.506;6.674;2023-07-29T11:17:32;96933.94;;;24.43;63.92
71917;BME280;59793;46.506;6.674;2023-07-29T11:20:00;96959.91;;;24.71;64.39
71917;BME280;59793;46.506;6.674;2023-07-29T11:22:26;96925.50;;;24.41;62.37
71917;BME280;59793;46.506;6.674;2023-07-29T11:24:51;96951.34;;;24.86;62.45
71917;BME280;59793;46.506;6.674;2023-07-29T11:27:16;96925.66;;;24.59;61.89
71917;BME280;59793;46.506;6.674;2023-07-29T11:29:42;96931.28;;;24.87;59.88
71917;BME280;59793;46.506;6.674;2023-07-29T11:32:07;96921.13;;;24.91;56.88
71917;BME280;59793;46.506;6.674;2023-07-29T11:34:34;96940.25;;;25.06;57.77
71917;BME280;59793;46.506;6.674;2023-07-29T11:37:00;96946.91;;;24.92;57.91
71917;BME280;59793;46.506;6.674;2023-07-29T11:39:25;96941.34;;;24.73;57.83
71917;BME280;59793;46.506;6.674;2023-07-29T11:41:50;96955.31;;;24.59;58.34
71917;BME280;59793;46.506;6.674;2023-07-29T11:44:18;96954.59;;;24.46;59.09
71917;BME280;59793;46.506;6.674;2023-07-29T11:46:44;96985.09;;;24.43;59.81
71917;BME280;59793;46.506;6.674;2023-07-29T11:49:10;96961.72;;;24.40;59.75
71917;BME280;59793;46.506;6.674;2023-07-29T11:51:36;96970.13;;;24.29;60.47
71917;BME280;59793;46.506;6.674;2023-07-29T11:54:01;96965.41;;;24.07;60.66
71917;BME280;59793;46.506;6.674;2023-07-29T11:56:27;96959.91;;;23.98;62.06
71917;BME280;59793;46.506;6.674;2023-07-29T11:58:54;96981.44;;;24.11;61.95
71917;BME280;59793;46.506;6.674;2023-07-29T12:01:20;96992.31;;;24.07;62.49
71917;BME280;59793;46.506;6.674;2023-07-29T12:03:47;96921.06;;;23.61;64.20
71917;BME280;59793;46.506;6.674;2023-07-29T12:06:13;96948.28;;;23.89;64.51
71917;BME280;59793;46.506;6.674;2023-07-29T12:08:38;96940.53;;;23.78;65.09
71917;BME280;59793;46.506;6.674;2023-07-29T12:11:04;96965.28;;;24.11;65.65
71917;BME280;59793;46.506;6.674;2023-07-29T12:13:29;96960.34;;;23.97;66.36
71917;BME280;59793;46.506;6.674;2023-07-29T12:16:01;97001.47;;;24.10;67.13
71917;BME280;59793;46.506;6.674;2023-07-29T12:18:31;97020.41;;;24.19;68.47
71917;BME280;59793;46.506;6.674;2023-07-29T12:20:57;96979.41;;;23.77;69.72
71917;BME280;59793;46.506;6.674;2023-07-29T12:23:25;97023.22;;;23.90;69.99
71917;BME280;59793;46.506;6.674;2023-07-29T12:25:58;96989.69;;;23.66;71.55
71917;BME280;59793;46.506;6.674;2023-07-29T12:28:25;97013.50;;;23.67;72.51
71917;BME280;59793;46.506;6.674;2023-07-29T12:30:54;96990.22;;;23.60;71.77
71917;BME280;59793;46.506;6.674;2023-07-29T12:33:33;97002.91;;;23.47;69.69
71917;BME280;59793;46.506;6.674;2023-07-29T12:35:59;96991.59;;;23.40;71.08
71917;BME280;59793;46.506;6.674;2023-07-29T12:38:28;97022.34;;;23.68;70.40
71917;BME280;59793;46.506;6.674;2023-07-29T12:40:55;97023.09;;;23.68;70.00
71917;BME280;59793;46.506;6.674;2023-07-29T12:43:20;97025.97;;;23.74;70.41
71917;BME280;59793;46.506;6.674;2023-07-29T12:45:46;97007.78;;;23.78;71.57
71917;BME280;59793;46.506;6.674;2023-07-29T12:48:12;96972.38;;;23.54;70.73
71917;BME280;59793;46.506;6.674;2023-07-29T12:50:38;97024.19;;;23.96;71.05
71917;BME280;59793;46.506;6.674;2023-07-29T12:53:04;97017.84;;;24.03;72.66
71917;BME280;59793;46.506;6.674;2023-07-29T12:55:30;96990.38;;;23.82;71.85
71917;BME280;59793;46.506;6.674;2023-07-29T12:57:55;96974.66;;;23.81;72.11
71917;BME280;59793;46.506;6.674;2023-07-29T13:00:21;97002.44;;;24.03;72.63
71917;BME280;59793;46.506;6.674;2023-07-29T13:02:46;96981.09;;;23.71;69.68
71917;BME280;59793;46.506;6.674;2023-07-29T13:05:12;97019.13;;;23.85;69.86
71917;BME280;59793;46.506;6.674;2023-07-29T13:07:39;96990.19;;;23.48;66.54
71917;BME280;59793;46.506;6.674;2023-07-29T13:10:04;96973.63;;;23.07;68.06
71917;BME280;59793;46.506;6.674;2023-07-29T13:12:30;96985.31;;;23.30;68.63
71917;BME280;59793;46.506;6.674;2023-07-29T13:14:55;97015.09;;;23.35;61.36